sensor_id;sensor_type;location;lat;lon;timestamp;P1;durP1;ratioP1;P2;durP2;ratioP2
25569;SDS011;17955;45.542;9.238;2022-08-01T00:02:10;3.85;;;2.17;;
25569;SDS011;17955;45.542;9.238;2022-08-01T00:04:37;4.40;;;2.00;;
25569;SDS011;17955;45.542;9.238;2022-08-01T00:07:04;2.97;;;1.63;;
25569;SDS011;17955;45.542;9.238;2022-08-01T00:09:31;5.72;;;2.58;;
25569;SDS011;17955;45.542;9.238;2022-08-01T00:11:58;3.80;;;1.73;;
25569;SDS011;17955;45.542;9.238;2022-08-01T00:14:25;4.80;;;1.85;;
25569;SDS011;17955;45.542;9.238;2022-08-01T00:16:52;4.03;;;1.88;;
25569;SDS011;17955;45.542;9.238;2022-08-01T00:19:20;3.25;;;2.10;;
25569;SDS011;17955;45.542;9.238;2022-08-01T00:21:47;6.00;;;2.10;;
25569;SDS011;17955;45.542;9.238;2022-08-01T00:24:14;4.30;;;1.70;;
25569;SDS011;17955;45.542;9.238;2022-08-01T00:26:41;5.88;;;1.80;;
25569;SDS011;17955;45.542;9.238;2022-08-01T00:29:08;3.78;;;1.75;;
25569;SDS011;17955;45.542;9.238;2022-08-01T00:31:35;9.20;;;2.00;;
25569;SDS011;17955;45.542;9.238;2022-08-01T00:34:02;3.13;;;1.92;;
25569;SDS011;17955;45.542;9.238;2022-08-01T00:36:30;5.95;;;1.90;;
25569;SDS011;17955;45.542;9.238;2022-08-01T00:38:57;5.32;;;1.75;;
25569;SDS011;17955;45.542;9.238;2022-08-01T00:41:24;3.92;;;1.92;;
25569;SDS011;17955;45.542;9.238;2022-08-01T00:43:51;4.78;;;1.83;;
25569;SDS011;17955;45.542;9.238;2022-08-01T00:46:19;6.65;;;2.75;;
25569;SDS011;17955;45.542;9.238;2022-08-01T00:48:46;8.43;;;3.35;;
25569;SDS011;17955;45.542;9.238;2022-08-01T00:51:13;6.45;;;2.30;;
25569;SDS011;17955;45.542;9.238;2022-08-01T00:53:42;3.90;;;1.88;;
25569;SDS011;17955;45.542;9.238;2022-08-01T00:56:09;4.95;;;2.10;;
25569;SDS011;17955;45.542;9.238;2022-08-01T00:58:37;4.78;;;2.17;;
25569;SDS011;17955;45.542;9.238;2022-08-01T01:01:04;5.13;;;1.92;;
25569;SDS011;17955;45.542;9.238;2022-08-01T01:03:31;4.18;;;2.35;;
25569;SDS011;17955;45.542;9.238;2022-08-01T01:06:01;7.28;;;2.40;;
25569;SDS011;17955;45.542;9.238;2022-08-01T01:08:39;6.10;;;2.13;;
25569;SDS011;17955;45.542;9.238;2022-08-01T01:11:13;5.22;;;2.72;;
25569;SDS011;17955;45.542;9.238;2022-08-01T01:13:46;5.35;;;2.15;;
25569;SDS011;17955;45.542;9.238;2022-08-01T01:16:17;5.70;;;2.90;;
25569;SDS011;17955;45.542;9.238;2022-08-01T01:18:47;4.72;;;2.67;;
25569;SDS011;17955;45.542;9.238;2022-08-01T01:24:21;4.72;;;2.00;;
25569;SDS011;17955;45.542;9.238;2022-08-01T01:27:01;5.80;;;2.72;;
25569;SDS011;17955;45.542;9.238;2022-08-01T01:29:39;6.38;;;2.38;;
25569;SDS011;17955;45.542;9.238;2022-08-01T01:32:09;4.93;;;1.63;;
25569;SDS011;17955;45.542;9.238;2022-08-01T01:34:42;3.45;;;1.73;;
25569;SDS011;17955;45.542;9.238;2022-08-01T01:37:12;5.63;;;1.80;;
25569;SDS011;17955;45.542;9.238;2022-08-01T01:39:43;5.32;;;1.60;;
25569;SDS011;17955;45.542;9.238;2022-08-01T01:42:12;3.08;;;1.60;;
25569;SDS011;17955;45.542;9.238;2022-08-01T01:44:42;4.35;;;1.80;;
25569;SDS011;17955;45.542;9.238;2022-08-01T01:47:10;4.07;;;1.92;;
25569;SDS011;17955;45.542;9.238;2022-08-01T01:49:39;3.97;;;1.63;;
25569;SDS011;17955;45.542;9.238;2022-08-01T01:52:07;3.00;;;1.73;;
25569;SDS011;17955;45.542;9.238;2022-08-01T01:54:36;2.83;;;1.40;;
25569;SDS011;17955;45.542;9.238;2022-08-01T01:57:07;7.55;;;1.90;;
25569;SDS011;17955;45.542;9.238;2022-08-01T01:59:37;5.05;;;1.70;;
25569;SDS011;17955;45.542;9.238;2022-08-01T02:02:07;6.10;;;1.60;;
25569;SDS011;17955;45.542;9.238;2022-08-01T02:04:36;4.93;;;1.75;;
25569;SDS011;17955;45.542;9.238;2022-08-01T02:07:07;3.80;;;1.27;;
25569;SDS011;17955;45.542;9.238;2022-08-01T02:09:37;4.60;;;1.75;;
25569;SDS011;17955;45.542;9.238;2022-08-01T02:12:06;3.70;;;1.30;;
25569;SDS011;17955;45.542;9.238;2022-08-01T02:14:36;4.55;;;1.40;;
25569;SDS011;17955;45.542;9.238;2022-08-01T02:17:06;4.68;;;1.60;;
25569;SDS011;17955;45.542;9.238;2022-08-01T02:19:37;4.22;;;1.80;;
25569;SDS011;17955;45.542;9.238;2022-08-01T02:22:06;4.35;;;1.67;;
25569;SDS011;17955;45.542;9.238;2022-08-01T02:24:42;4.65;;;1.92;;
25569;SDS011;17955;45.542;9.238;2022-08-01T02:27:15;4.43;;;1.67;;
25569;SDS011;17955;45.542;9.238;2022-08-01T02:29:52;7.03;;;1.85;;
25569;SDS011;17955;45.542;9.238;2022-08-01T02:32:27;3.92;;;2.22;;
25569;SDS011;17955;45.542;9.238;2022-08-01T02:34:57;4.15;;;1.60;;
25569;SDS011;17955;45.542;9.238;2022-08-01T02:37:28;3.35;;;1.88;;
25569;SDS011;17955;45.542;9.238;2022-08-01T02:39:57;4.90;;;1.80;;
25569;SDS011;17955;45.542;9.238;2022-08-01T02:42:26;3.33;;;1.80;;
25569;SDS011;17955;45.542;9.238;2022-08-01T02:44:55;5.57;;;1.63;;
25569;SDS011;17955;45.542;9.238;2022-08-01T02:47:23;3.22;;;1.70;;
25569;SDS011;17955;45.542;9.238;2022-08-01T02:49:54;5.70;;;1.75;;
25569;SDS011;17955;45.542;9.238;2022-08-01T02:52:23;2.83;;;1.60;;
25569;SDS011;17955;45.542;9.238;2022-08-01T02:54:53;3.60;;;1.65;;
25569;SDS011;17955;45.542;9.238;2022-08-01T02:57:22;5.40;;;1.90;;
25569;SDS011;17955;45.542;9.238;2022-08-01T02:59:50;6.75;;;1.70;;
25569;SDS011;17955;45.542;9.238;2022-08-01T03:02:19;2.90;;;1.70;;
25569;SDS011;17955;45.542;9.238;2022-08-01T03:04:50;4.18;;;1.75;;
25569;SDS011;17955;45.542;9.238;2022-08-01T03:07:19;5.05;;;2.13;;
25569;SDS011;17955;45.542;9.238;2022-08-01T03:09:49;3.60;;;1.63;;
25569;SDS011;17955;45.542;9.238;2022-08-01T03:12:18;3.28;;;1.60;;
25569;SDS011;17955;45.542;9.238;2022-08-01T03:14:49;3.90;;;1.98;;
25569;SDS011;17955;45.542;9.238;2022-08-01T03:17:20;3.97;;;2.10;;
25569;SDS011;17955;45.542;9.238;2022-08-01T03:19:51;4.47;;;1.70;;
25569;SDS011;17955;45.542;9.238;2022-08-01T03:22:19;5.28;;;1.90;;
25569;SDS011;17955;45.542;9.238;2022-08-01T03:24:49;5.22;;;2.25;;
25569;SDS011;17955;45.542;9.238;2022-08-01T03:27:18;5.78;;;2.15;;
25569;SDS011;17955;45.542;9.238;2022-08-01T03:29:48;7.20;;;1.95;;
25569;SDS011;17955;45.542;9.238;2022-08-01T03:32:16;6.57;;;2.22;;
25569;SDS011;17955;45.542;9.238;2022-08-01T03:34:45;5.53;;;2.35;;
25569;SDS011;17955;45.542;9.238;2022-08-01T03:37:17;5.85;;;2.42;;
25569;SDS011;17955;45.542;9.238;2022-08-01T03:39:50;3.95;;;1.95;;
25569;SDS011;17955;45.542;9.238;2022-08-01T03:42:23;5.75;;;1.95;;
25569;SDS011;17955;45.542;9.238;2022-08-01T03:44:54;6.85;;;2.15;;
25569;SDS011;17955;45.542;9.238;2022-08-01T03:47:26;4.22;;;2.00;;
25569;SDS011;17955;45.542;9.238;2022-08-01T03:49:58;4.43;;;1.90;;
25569;SDS011;17955;45.542;9.238;2022-08-01T03:52:28;6.53;;;2.10;;
25569;SDS011;17955;45.542;9.238;2022-08-01T03:54:57;5.53;;;2.10;;
25569;SDS011;17955;45.542;9.238;2022-08-01T03:57:27;5.50;;;1.95;;
25569;SDS011;17955;45.542;9.238;2022-08-01T03:59:54;6.10;;;1.77;;
25569;SDS011;17955;45.542;9.238;2022-08-01T04:02:22;5.20;;;2.17;;
25569;SDS011;17955;45.542;9.238;2022-08-01T04:04:50;3.42;;;1.73;;
25569;SDS011;17955;45.542;9.238;2022-08-01T04:07:21;5.90;;;2.17;;
25569;SDS011;17955;45.542;9.238;2022-08-01T04:09:51;6.35;;;2.00;;
25569;SDS011;17955;45.542;9.238;2022-08-01T04:12:18;4.68;;;2.15;;
25569;SDS011;17955;45.542;9.238;2022-08-01T04:14:45;4.60;;;2.05;;
25569;SDS011;17955;45.542;9.238;2022-08-01T04:17:13;5.95;;;1.85;;
25569;SDS011;17955;45.542;9.238;2022-08-01T04:19:41;4.68;;;2.33;;
25569;SDS011;17955;45.542;9.238;2022-08-01T04:22:08;3.53;;;1.63;;
25569;SDS011;17955;45.542;9.238;2022-08-01T04:24:36;6.15;;;2.08;;
25569;SDS011;17955;45.542;9.238;2022-08-01T04:27:08;4.35;;;2.15;;
25569;SDS011;17955;45.542;9.238;2022-08-01T04:29:39;6.57;;;2.20;;
25569;SDS011;17955;45.542;9.238;2022-08-01T04:32:10;4.82;;;2.40;;
25569;SDS011;17955;45.542;9.238;2022-08-01T04:34:39;5.30;;;2.10;;
25569;SDS011;17955;45.542;9.238;2022-08-01T04:37:08;2.83;;;1.67;;
25569;SDS011;17955;45.542;9.238;2022-08-01T04:39:36;4.18;;;2.03;;
25569;SDS011;17955;45.542;9.238;2022-08-01T04:42:07;4.93;;;2.08;;
25569;SDS011;17955;45.542;9.238;2022-08-01T04:44:36;4.38;;;1.88;;
25569;SDS011;17955;45.542;9.238;2022-08-01T04:47:03;4.72;;;2.33;;
25569;SDS011;17955;45.542;9.238;2022-08-01T04:49:33;4.63;;;2.05;;
25569;SDS011;17955;45.542;9.238;2022-08-01T04:52:00;4.72;;;2.50;;
25569;SDS011;17955;45.542;9.238;2022-08-01T04:54:28;5.38;;;1.90;;
25569;SDS011;17955;45.542;9.238;2022-08-01T04:56:58;4.75;;;1.67;;
25569;SDS011;17955;45.542;9.238;2022-08-01T04:59:27;3.22;;;1.67;;
25569;SDS011;17955;45.542;9.238;2022-08-01T05:02:06;3.95;;;1.80;;
25569;SDS011;17955;45.542;9.238;2022-08-01T05:04:33;3.17;;;1.75;;
25569;SDS011;17955;45.542;9.238;2022-08-01T05:07:01;3.47;;;1.90;;
25569;SDS011;17955;45.542;9.238;2022-08-01T05:09:28;3.35;;;1.77;;
25569;SDS011;17955;45.542;9.238;2022-08-01T05:11:55;2.53;;;1.58;;
25569;SDS011;17955;45.542;9.238;2022-08-01T05:14:23;5.30;;;1.98;;
25569;SDS011;17955;45.542;9.238;2022-08-01T05:16:52;3.88;;;1.70;;
25569;SDS011;17955;45.542;9.238;2022-08-01T05:19:19;3.85;;;1.70;;
25569;SDS011;17955;45.542;9.238;2022-08-01T05:21:46;7.85;;;1.85;;
25569;SDS011;17955;45.542;9.238;2022-08-01T05:24:13;3.42;;;1.67;;
25569;SDS011;17955;45.542;9.238;2022-08-01T05:26:40;6.15;;;1.55;;
25569;SDS011;17955;45.542;9.238;2022-08-01T05:29:07;4.57;;;2.00;;
25569;SDS011;17955;45.542;9.238;2022-08-01T05:31:34;7.75;;;2.20;;
25569;SDS011;17955;45.542;9.238;2022-08-01T05:34:02;6.18;;;1.75;;
25569;SDS011;17955;45.542;9.238;2022-08-01T05:36:29;4.88;;;1.52;;
25569;SDS011;17955;45.542;9.238;2022-08-01T05:38:56;3.53;;;1.38;;
25569;SDS011;17955;45.542;9.238;2022-08-01T05:41:23;5.47;;;1.90;;
25569;SDS011;17955;45.542;9.238;2022-08-01T05:43:51;6.75;;;1.40;;
25569;SDS011;17955;45.542;9.238;2022-08-01T05:46:18;7.95;;;1.77;;
25569;SDS011;17955;45.542;9.238;2022-08-01T05:48:45;6.88;;;2.63;;
25569;SDS011;17955;45.542;9.238;2022-08-01T05:51:13;7.50;;;1.88;;
25569;SDS011;17955;45.542;9.238;2022-08-01T05:53:40;4.50;;;1.50;;
25569;SDS011;17955;45.542;9.238;2022-08-01T05:56:07;5.88;;;1.50;;
25569;SDS011;17955;45.542;9.238;2022-08-01T05:58:35;5.88;;;1.38;;
25569;SDS011;17955;45.542;9.238;2022-08-01T06:01:02;3.95;;;1.67;;
25569;SDS011;17955;45.542;9.238;2022-08-01T06:03:29;6.30;;;1.80;;
25569;SDS011;17955;45.542;9.238;2022-08-01T06:05:58;5.82;;;1.45;;
25569;SDS011;17955;45.542;9.238;2022-08-01T06:08:26;6.40;;;1.58;;
25569;SDS011;17955;45.542;9.238;2022-08-01T06:10:54;6.68;;;1.50;;
25569;SDS011;17955;45.542;9.238;2022-08-01T06:13:21;5.88;;;1.60;;
25569;SDS011;17955;45.542;9.238;2022-08-01T06:15:48;4.65;;;1.60;;
25569;SDS011;17955;45.542;9.238;2022-08-01T06:18:16;2.80;;;1.50;;
25569;SDS011;17955;45.542;9.238;2022-08-01T06:20:43;7.03;;;1.60;;
25569;SDS011;17955;45.542;9.238;2022-08-01T06:23:10;3.47;;;1.77;;
25569;SDS011;17955;45.542;9.238;2022-08-01T06:25:38;6.20;;;1.50;;
25569;SDS011;17955;45.542;9.238;2022-08-01T06:28:05;5.20;;;1.65;;
25569;SDS011;17955;45.542;9.238;2022-08-01T06:30:32;6.68;;;1.55;;
25569;SDS011;17955;45.542;9.238;2022-08-01T06:33:00;9.25;;;1.70;;
25569;SDS011;17955;45.542;9.238;2022-08-01T06:35:28;11.88;;;2.20;;
25569;SDS011;17955;45.542;9.238;2022-08-01T06:37:56;6.03;;;1.77;;
25569;SDS011;17955;45.542;9.238;2022-08-01T06:40:23;12.45;;;2.60;;
25569;SDS011;17955;45.542;9.238;2022-08-01T06:42:51;22.45;;;2.88;;
25569;SDS011;17955;45.542;9.238;2022-08-01T06:45:18;22.08;;;4.07;;
25569;SDS011;17955;45.542;9.238;2022-08-01T06:47:47;25.38;;;3.50;;
25569;SDS011;17955;45.542;9.238;2022-08-01T06:50:14;24.02;;;3.00;;
25569;SDS011;17955;45.542;9.238;2022-08-01T06:52:41;22.58;;;2.83;;
25569;SDS011;17955;45.542;9.238;2022-08-01T06:55:08;15.50;;;2.40;;
25569;SDS011;17955;45.542;9.238;2022-08-01T06:57:35;14.13;;;2.88;;
25569;SDS011;17955;45.542;9.238;2022-08-01T07:00:05;18.10;;;2.28;;
25569;SDS011;17955;45.542;9.238;2022-08-01T07:02:35;16.88;;;3.00;;
25569;SDS011;17955;45.542;9.238;2022-08-01T07:05:03;16.45;;;1.92;;
25569;SDS011;17955;45.542;9.238;2022-08-01T07:07:30;29.83;;;3.10;;
25569;SDS011;17955;45.542;9.238;2022-08-01T07:09:57;14.80;;;2.20;;
25569;SDS011;17955;45.542;9.238;2022-08-01T07:12:24;7.75;;;1.80;;
25569;SDS011;17955;45.542;9.238;2022-08-01T07:14:51;11.68;;;2.92;;
25569;SDS011;17955;45.542;9.238;2022-08-01T07:17:20;14.30;;;1.98;;
25569;SDS011;17955;45.542;9.238;2022-08-01T07:19:47;18.08;;;2.72;;
25569;SDS011;17955;45.542;9.238;2022-08-01T07:22:14;13.80;;;2.78;;
25569;SDS011;17955;45.542;9.238;2022-08-01T07:24:41;7.45;;;2.30;;
25569;SDS011;17955;45.542;9.238;2022-08-01T07:27:09;4.93;;;1.73;;
25569;SDS011;17955;45.542;9.238;2022-08-01T07:29:36;5.43;;;1.80;;
25569;SDS011;17955;45.542;9.238;2022-08-01T07:32:03;8.45;;;1.70;;
25569;SDS011;17955;45.542;9.238;2022-08-01T07:34:32;8.93;;;2.00;;
25569;SDS011;17955;45.542;9.238;2022-08-01T07:36:59;6.43;;;1.88;;
25569;SDS011;17955;45.542;9.238;2022-08-01T07:39:26;8.48;;;1.88;;
25569;SDS011;17955;45.542;9.238;2022-08-01T07:41:53;6.53;;;1.83;;
25569;SDS011;17955;45.542;9.238;2022-08-01T07:44:20;3.92;;;1.50;;
25569;SDS011;17955;45.542;9.238;2022-08-01T07:46:47;6.13;;;1.60;;
25569;SDS011;17955;45.542;9.238;2022-08-01T07:49:14;5.50;;;1.60;;
25569;SDS011;17955;45.542;9.238;2022-08-01T07:51:42;5.82;;;2.03;;
25569;SDS011;17955;45.542;9.238;2022-08-01T07:54:09;5.82;;;1.63;;
25569;SDS011;17955;45.542;9.238;2022-08-01T07:56:36;2.92;;;1.48;;
25569;SDS011;17955;45.542;9.238;2022-08-01T07:59:03;9.15;;;1.65;;
25569;SDS011;17955;45.542;9.238;2022-08-01T08:01:30;4.03;;;1.45;;
25569;SDS011;17955;45.542;9.238;2022-08-01T08:03:57;8.43;;;1.88;;
25569;SDS011;17955;45.542;9.238;2022-08-01T08:06:24;5.13;;;2.00;;
25569;SDS011;17955;45.542;9.238;2022-08-01T08:08:52;3.90;;;1.67;;
25569;SDS011;17955;45.542;9.238;2022-08-01T08:11:19;5.90;;;1.80;;
25569;SDS011;17955;45.542;9.238;2022-08-01T08:13:46;3.30;;;1.45;;
25569;SDS011;17955;45.542;9.238;2022-08-01T08:16:13;5.85;;;1.55;;
25569;SDS011;17955;45.542;9.238;2022-08-01T08:18:40;9.63;;;2.00;;
25569;SDS011;17955;45.542;9.238;2022-08-01T08:21:07;4.40;;;1.75;;
25569;SDS011;17955;45.542;9.238;2022-08-01T08:23:34;4.80;;;1.50;;
25569;SDS011;17955;45.542;9.238;2022-08-01T08:26:20;5.80;;;1.85;;
25569;SDS011;17955;45.542;9.238;2022-08-01T08:28:52;6.00;;;2.20;;
25569;SDS011;17955;45.542;9.238;2022-08-01T08:31:35;5.65;;;1.80;;
25569;SDS011;17955;45.542;9.238;2022-08-01T08:34:02;5.60;;;2.08;;
25569;SDS011;17955;45.542;9.238;2022-08-01T08:36:29;3.60;;;1.83;;
25569;SDS011;17955;45.542;9.238;2022-08-01T08:38:56;4.05;;;2.25;;
25569;SDS011;17955;45.542;9.238;2022-08-01T08:41:26;6.18;;;1.95;;
25569;SDS011;17955;45.542;9.238;2022-08-01T08:43:55;5.85;;;2.20;;
25569;SDS011;17955;45.542;9.238;2022-08-01T08:46:23;5.97;;;2.10;;
25569;SDS011;17955;45.542;9.238;2022-08-01T08:48:52;4.40;;;1.85;;
25569;SDS011;17955;45.542;9.238;2022-08-01T08:51:34;6.60;;;2.08;;
25569;SDS011;17955;45.542;9.238;2022-08-01T08:54:10;3.90;;;1.90;;
25569;SDS011;17955;45.542;9.238;2022-08-01T08:56:54;5.10;;;2.03;;
25569;SDS011;17955;45.542;9.238;2022-08-01T08:59:21;4.72;;;1.92;;
25569;SDS011;17955;45.542;9.238;2022-08-01T09:01:50;4.78;;;1.98;;
25569;SDS011;17955;45.542;9.238;2022-08-01T09:04:17;4.65;;;1.92;;
25569;SDS011;17955;45.542;9.238;2022-08-01T09:06:46;6.45;;;2.58;;
25569;SDS011;17955;45.542;9.238;2022-08-01T09:09:13;5.70;;;2.42;;
25569;SDS011;17955;45.542;9.238;2022-08-01T09:11:40;6.05;;;2.25;;
25569;SDS011;17955;45.542;9.238;2022-08-01T09:14:09;10.23;;;2.38;;
25569;SDS011;17955;45.542;9.238;2022-08-01T09:16:40;6.45;;;2.20;;
25569;SDS011;17955;45.542;9.238;2022-08-01T09:19:12;6.90;;;2.33;;
25569;SDS011;17955;45.542;9.238;2022-08-01T09:21:40;7.70;;;2.67;;
25569;SDS011;17955;45.542;9.238;2022-08-01T09:24:23;4.78;;;2.22;;
25569;SDS011;17955;45.542;9.238;2022-08-01T09:26:51;4.13;;;2.08;;
25569;SDS011;17955;45.542;9.238;2022-08-01T09:29:21;5.55;;;2.15;;
25569;SDS011;17955;45.542;9.238;2022-08-01T09:31:48;11.10;;;3.20;;
25569;SDS011;17955;45.542;9.238;2022-08-01T09:34:23;8.27;;;3.45;;
25569;SDS011;17955;45.542;9.238;2022-08-01T09:36:52;4.28;;;2.00;;
25569;SDS011;17955;45.542;9.238;2022-08-01T09:39:22;9.68;;;2.22;;
25569;SDS011;17955;45.542;9.238;2022-08-01T09:41:51;3.75;;;2.17;;
25569;SDS011;17955;45.542;9.238;2022-08-01T09:44:25;4.50;;;2.00;;
25569;SDS011;17955;45.542;9.238;2022-08-01T09:47:03;4.35;;;2.30;;
25569;SDS011;17955;45.542;9.238;2022-08-01T09:49:31;5.53;;;2.03;;
25569;SDS011;17955;45.542;9.238;2022-08-01T09:51:59;8.95;;;2.22;;
25569;SDS011;17955;45.542;9.238;2022-08-01T09:54:36;13.90;;;2.67;;
25569;SDS011;17955;45.542;9.238;2022-08-01T09:57:10;15.35;;;2.38;;
25569;SDS011;17955;45.542;9.238;2022-08-01T09:59:43;5.32;;;2.28;;
25569;SDS011;17955;45.542;9.238;2022-08-01T10:02:12;7.18;;;2.10;;
25569;SDS011;17955;45.542;9.238;2022-08-01T10:04:46;6.38;;;2.15;;
25569;SDS011;17955;45.542;9.238;2022-08-01T10:07:14;5.80;;;1.77;;
25569;SDS011;17955;45.542;9.238;2022-08-01T10:09:42;4.13;;;2.10;;
25569;SDS011;17955;45.542;9.238;2022-08-01T10:12:11;5.53;;;1.90;;
25569;SDS011;17955;45.542;9.238;2022-08-01T10:14:40;5.10;;;1.95;;
25569;SDS011;17955;45.542;9.238;2022-08-01T10:17:09;8.50;;;1.92;;
25569;SDS011;17955;45.542;9.238;2022-08-01T10:19:39;6.38;;;1.80;;
25569;SDS011;17955;45.542;9.238;2022-08-01T10:22:08;7.63;;;1.52;;
25569;SDS011;17955;45.542;9.238;2022-08-01T10:24:37;5.10;;;1.98;;
25569;SDS011;17955;45.542;9.238;2022-08-01T10:27:05;3.50;;;1.80;;
25569;SDS011;17955;45.542;9.238;2022-08-01T10:29:40;4.78;;;1.58;;
25569;SDS011;17955;45.542;9.238;2022-08-01T10:32:13;5.55;;;1.75;;
25569;SDS011;17955;45.542;9.238;2022-08-01T10:34:40;6.18;;;1.90;;
25569;SDS011;17955;45.542;9.238;2022-08-01T10:37:08;5.80;;;2.30;;
25569;SDS011;17955;45.542;9.238;2022-08-01T10:39:36;6.40;;;2.35;;
25569;SDS011;17955;45.542;9.238;2022-08-01T10:42:03;5.20;;;2.00;;
25569;SDS011;17955;45.542;9.238;2022-08-01T10:44:32;3.78;;;1.85;;
25569;SDS011;17955;45.542;9.238;2022-08-01T10:47:03;4.93;;;2.03;;
25569;SDS011;17955;45.542;9.238;2022-08-01T10:49:34;8.43;;;1.80;;
25569;SDS011;17955;45.542;9.238;2022-08-01T10:52:13;3.55;;;1.88;;
25569;SDS011;17955;45.542;9.238;2022-08-01T10:54:40;9.82;;;2.38;;
25569;SDS011;17955;45.542;9.238;2022-08-01T10:57:07;6.28;;;2.10;;
25569;SDS011;17955;45.542;9.238;2022-08-01T10:59:36;3.92;;;1.50;;
25569;SDS011;17955;45.542;9.238;2022-08-01T11:02:26;5.10;;;2.17;;
25569;SDS011;17955;45.542;9.238;2022-08-01T11:04:56;6.40;;;1.70;;
25569;SDS011;17955;45.542;9.238;2022-08-01T11:07:35;5.20;;;1.80;;
25569;SDS011;17955;45.542;9.238;2022-08-01T11:10:15;4.65;;;1.58;;
25569;SDS011;17955;45.542;9.238;2022-08-01T11:12:47;10.23;;;1.73;;
25569;SDS011;17955;45.542;9.238;2022-08-01T11:18:01;4.78;;;2.00;;
25569;SDS011;17955;45.542;9.238;2022-08-01T11:20:30;4.57;;;1.70;;
25569;SDS011;17955;45.542;9.238;2022-08-01T11:31:42;5.38;;;2.00;;
25569;SDS011;17955;45.542;9.238;2022-08-01T11:34:11;9.50;;;2.30;;
25569;SDS011;17955;45.542;9.238;2022-08-01T11:36:38;10.30;;;1.90;;
25569;SDS011;17955;45.542;9.238;2022-08-01T11:39:15;7.55;;;2.33;;
25569;SDS011;17955;45.542;9.238;2022-08-01T11:41:43;3.75;;;1.83;;
25569;SDS011;17955;45.542;9.238;2022-08-01T11:44:12;3.67;;;2.00;;
25569;SDS011;17955;45.542;9.238;2022-08-01T11:46:45;4.85;;;1.83;;
25569;SDS011;17955;45.542;9.238;2022-08-01T11:49:30;4.78;;;2.42;;
25569;SDS011;17955;45.542;9.238;2022-08-01T11:52:12;7.65;;;2.10;;
25569;SDS011;17955;45.542;9.238;2022-08-01T11:54:41;10.55;;;2.53;;
25569;SDS011;17955;45.542;9.238;2022-08-01T11:57:10;15.80;;;3.08;;
25569;SDS011;17955;45.542;9.238;2022-08-01T11:59:39;6.35;;;2.30;;
25569;SDS011;17955;45.542;9.238;2022-08-01T12:02:14;4.80;;;2.30;;
25569;SDS011;17955;45.542;9.238;2022-08-01T12:04:51;8.43;;;1.88;;
25569;SDS011;17955;45.542;9.238;2022-08-01T12:07:20;6.63;;;2.67;;
25569;SDS011;17955;45.542;9.238;2022-08-01T12:09:47;6.88;;;2.65;;
25569;SDS011;17955;45.542;9.238;2022-08-01T12:12:22;6.88;;;3.50;;
25569;SDS011;17955;45.542;9.238;2022-08-01T12:14:52;5.45;;;3.03;;
25569;SDS011;17955;45.542;9.238;2022-08-01T12:17:27;4.95;;;2.22;;
25569;SDS011;17955;45.542;9.238;2022-08-01T12:19:56;4.45;;;2.20;;
25569;SDS011;17955;45.542;9.238;2022-08-01T12:22:23;7.97;;;2.22;;
25569;SDS011;17955;45.542;9.238;2022-08-01T12:24:51;5.22;;;1.90;;
25569;SDS011;17955;45.542;9.238;2022-08-01T12:27:25;6.10;;;2.20;;
25569;SDS011;17955;45.542;9.238;2022-08-01T12:29:54;5.23;;;2.10;;
25569;SDS011;17955;45.542;9.238;2022-08-01T12:32:25;4.05;;;1.73;;
25569;SDS011;17955;45.542;9.238;2022-08-01T12:34:58;2.92;;;1.60;;
25569;SDS011;17955;45.542;9.238;2022-08-01T12:37:28;7.50;;;1.65;;
25569;SDS011;17955;45.542;9.238;2022-08-01T12:39:55;3.78;;;1.52;;
25569;SDS011;17955;45.542;9.238;2022-08-01T12:42:22;3.20;;;1.50;;
25569;SDS011;17955;45.542;9.238;2022-08-01T12:44:51;6.15;;;1.70;;
25569;SDS011;17955;45.542;9.238;2022-08-01T12:47:18;3.97;;;1.67;;
25569;SDS011;17955;45.542;9.238;2022-08-01T12:49:46;9.35;;;2.05;;
25569;SDS011;17955;45.542;9.238;2022-08-01T12:52:16;12.77;;;2.08;;
25569;SDS011;17955;45.542;9.238;2022-08-01T12:54:59;12.07;;;1.85;;
25569;SDS011;17955;45.542;9.238;2022-08-01T12:57:28;8.55;;;1.45;;
25569;SDS011;17955;45.542;9.238;2022-08-01T13:00:04;6.57;;;1.48;;
25569;SDS011;17955;45.542;9.238;2022-08-01T13:02:38;3.35;;;1.45;;
25569;SDS011;17955;45.542;9.238;2022-08-01T13:05:06;2.63;;;1.20;;
25569;SDS011;17955;45.542;9.238;2022-08-01T13:07:36;3.70;;;1.52;;
25569;SDS011;17955;45.542;9.238;2022-08-01T13:10:05;5.05;;;3.78;;
25569;SDS011;17955;45.542;9.238;2022-08-01T13:12:33;10.10;;;2.80;;
25569;SDS011;17955;45.542;9.238;2022-08-01T13:15:14;6.68;;;4.30;;
25569;SDS011;17955;45.542;9.238;2022-08-01T13:17:42;3.42;;;1.58;;
25569;SDS011;17955;45.542;9.238;2022-08-01T13:20:09;3.20;;;1.55;;
25569;SDS011;17955;45.542;9.238;2022-08-01T13:22:48;3.17;;;1.27;;
25569;SDS011;17955;45.542;9.238;2022-08-01T13:25:15;4.43;;;2.00;;
25569;SDS011;17955;45.542;9.238;2022-08-01T13:27:43;4.38;;;1.40;;
25569;SDS011;17955;45.542;9.238;2022-08-01T13:30:10;3.65;;;1.20;;
25569;SDS011;17955;45.542;9.238;2022-08-01T13:32:39;3.20;;;1.30;;
25569;SDS011;17955;45.542;9.238;2022-08-01T13:35:08;2.83;;;1.10;;
25569;SDS011;17955;45.542;9.238;2022-08-01T13:37:37;5.15;;;1.88;;
25569;SDS011;17955;45.542;9.238;2022-08-01T13:40:07;2.05;;;1.10;;
25569;SDS011;17955;45.542;9.238;2022-08-01T13:42:35;3.00;;;1.20;;
25569;SDS011;17955;45.542;9.238;2022-08-01T13:45:02;2.85;;;1.20;;
25569;SDS011;17955;45.542;9.238;2022-08-01T13:47:32;5.22;;;1.40;;
25569;SDS011;17955;45.542;9.238;2022-08-01T13:49:59;3.85;;;1.60;;
25569;SDS011;17955;45.542;9.238;2022-08-01T13:52:27;2.60;;;1.10;;
25569;SDS011;17955;45.542;9.238;2022-08-01T13:54:55;3.70;;;1.27;;
25569;SDS011;17955;45.542;9.238;2022-08-01T13:57:23;3.33;;;1.55;;
25569;SDS011;17955;45.542;9.238;2022-08-01T13:59:50;6.28;;;1.10;;
25569;SDS011;17955;45.542;9.238;2022-08-01T14:02:17;9.32;;;1.10;;
25569;SDS011;17955;45.542;9.238;2022-08-01T14:04:44;7.78;;;1.67;;
25569;SDS011;17955;45.542;9.238;2022-08-01T14:07:12;2.85;;;1.20;;
25569;SDS011;17955;45.542;9.238;2022-08-01T14:09:39;22.38;;;2.20;;
25569;SDS011;17955;45.542;9.238;2022-08-01T14:12:06;18.67;;;1.75;;
25569;SDS011;17955;45.542;9.238;2022-08-01T14:14:35;13.75;;;1.70;;
25569;SDS011;17955;45.542;9.238;2022-08-01T14:17:03;6.18;;;1.35;;
25569;SDS011;17955;45.542;9.238;2022-08-01T14:19:30;2.92;;;1.20;;
25569;SDS011;17955;45.542;9.238;2022-08-01T14:21:57;3.63;;;0.98;;
25569;SDS011;17955;45.542;9.238;2022-08-01T14:24:24;2.95;;;1.02;;
25569;SDS011;17955;45.542;9.238;2022-08-01T14:26:52;20.15;;;1.65;;
25569;SDS011;17955;45.542;9.238;2022-08-01T14:29:19;6.20;;;1.67;;
25569;SDS011;17955;45.542;9.238;2022-08-01T14:31:47;6.50;;;1.20;;
25569;SDS011;17955;45.542;9.238;2022-08-01T14:34:14;23.50;;;1.58;;
25569;SDS011;17955;45.542;9.238;2022-08-01T14:36:41;3.75;;;1.15;;
25569;SDS011;17955;45.542;9.238;2022-08-01T14:39:08;9.50;;;1.90;;
25569;SDS011;17955;45.542;9.238;2022-08-01T14:41:35;15.25;;;1.95;;
25569;SDS011;17955;45.542;9.238;2022-08-01T14:44:02;41.13;;;2.63;;
25569;SDS011;17955;45.542;9.238;2022-08-01T14:46:30;8.15;;;1.10;;
25569;SDS011;17955;45.542;9.238;2022-08-01T14:48:59;3.13;;;1.10;;
25569;SDS011;17955;45.542;9.238;2022-08-01T14:51:26;2.85;;;1.05;;
25569;SDS011;17955;45.542;9.238;2022-08-01T14:53:58;2.72;;;1.05;;
25569;SDS011;17955;45.542;9.238;2022-08-01T14:56:25;5.07;;;1.00;;
25569;SDS011;17955;45.542;9.238;2022-08-01T14:58:52;4.97;;;0.90;;
25569;SDS011;17955;45.542;9.238;2022-08-01T15:01:19;4.05;;;0.95;;
25569;SDS011;17955;45.542;9.238;2022-08-01T15:03:45;1.92;;;0.77;;
25569;SDS011;17955;45.542;9.238;2022-08-01T15:06:16;2.95;;;0.80;;
25569;SDS011;17955;45.542;9.238;2022-08-01T15:08:43;3.38;;;1.02;;
25569;SDS011;17955;45.542;9.238;2022-08-01T15:11:10;1.70;;;0.90;;
25569;SDS011;17955;45.542;9.238;2022-08-01T15:13:38;4.78;;;1.08;;